createdAt,value
2023-03-26T00:01:40.627Z,99471.50
2023-03-26T00:04:10.612Z,99456.75
2023-03-26T00:06:39.966Z,99468.94
2023-03-26T00:09:25.552Z,99476.66
2023-03-26T00:11:52.189Z,99465.88
2023-03-26T00:14:18.802Z,99469.41
2023-03-26T00:16:55.144Z,99464.44
2023-03-26T00:19:23.261Z,99459.56
2023-03-26T00:21:53.194Z,99474.63
2023-03-26T00:24:19.788Z,99474.56
2023-03-26T00:26:53.352Z,99479.69
2023-03-26T00:29:20.371Z,99471.75
2023-03-26T00:31:47.013Z,99468.72
2023-03-26T00:34:18.870Z,99470.78
2023-03-26T00:36:47.072Z,99468.09
2023-03-26T00:39:19.098Z,99464.28
2023-03-26T00:41:45.732Z,99457.72
2023-03-26T00:44:12.350Z,99457.13
2023-03-26T00:46:39.880Z,99441.69
2023-03-26T00:49:11.011Z,99452.06
2023-03-26T00:51:42.527Z,99436.31
2023-03-26T00:54:11.890Z,99440.09
2023-03-26T00:56:43.413Z,99428.13
2023-03-26T00:59:10.258Z,99440.41
2023-03-26T01:01:37.829Z,99424.44
2023-03-26T01:04:42.777Z,99422.84
2023-03-26T01:07:21.754Z,99422.84
2023-03-26T01:09:54.769Z,99419.41
2023-03-26T01:12:26.787Z,99418.41
2023-03-26T01:15:00.930Z,99423.75
2023-03-26T01:17:34.178Z,99419.44
2023-03-26T01:20:13.060Z,99424.59
2023-03-26T01:22:49.486Z,99421.34
2023-03-26T01:25:18.940Z,99426.56
2023-03-26T01:27:48.962Z,99424.06
2023-03-26T01:30:49.649Z,99432.44
2023-03-26T01:33:30.355Z,99425.63
2023-03-26T01:36:16.490Z,99431.56
2023-03-26T01:38:48.838Z,99436.78
2023-03-26T01:41:32.382Z,99441.06
2023-03-26T01:44:37.265Z,99443.59
2023-03-26T01:47:06.325Z,99446.22
2023-03-26T01:49:35.625Z,99438.56
2023-03-26T01:52:02.321Z,99440.28
2023-03-26T01:54:34.775Z,99440.19
2023-03-26T01:57:13.397Z,99441.06
2023-03-26T01:59:51.944Z,99440.97
2023-03-26T02:02:43.529Z,99453.88
2023-03-26T02:05:32.054Z,99457.28
2023-03-26T02:08:27.014Z,99450.34
2023-03-26T02:11:04.459Z,99458.13
2023-03-26T02:13:32.383Z,99468.13
2023-03-26T02:16:03.671Z,99466.53
2023-03-26T02:18:41.630Z,99479.88
2023-03-26T02:21:11.036Z,99473.03
2023-03-26T02:23:58.120Z,99475.06
2023-03-26T02:26:25.256Z,99474.88
2023-03-26T02:28:51.950Z,99466.22
2023-03-26T02:31:21.918Z,99463.63
2023-03-26T02:33:50.645Z,99459.44
2023-03-26T02:36:22.107Z,99449.97
2023-03-26T02:38:51.669Z,99455.09
2023-03-26T02:41:21.348Z,99459.34
2023-03-26T02:43:48.022Z,99439.91
2023-03-26T02:46:17.270Z,99443.56
2023-03-26T02:48:44.160Z,99438.03
2023-03-26T02:51:10.870Z,99441.00
2023-03-26T02:53:41.337Z,99426.63
2023-03-26T02:56:10.033Z,99429.09
2023-03-26T02:58:36.612Z,99437.47
2023-03-26T03:01:03.757Z,99429.69
2023-03-26T03:03:30.640Z,99442.38
2023-03-26T03:06:04.395Z,99443.00
2023-03-26T03:08:31.094Z,99440.13
2023-03-26T03:11:03.668Z,99450.38
2023-03-26T03:13:32.522Z,99440.84
2023-03-26T03:16:01.397Z,99436.38
2023-03-26T03:18:30.402Z,99444.50
2023-03-26T03:20:56.985Z,99442.13
2023-03-26T03:23:25.914Z,99448.25
2023-03-26T03:25:57.395Z,99447.97
2023-03-26T03:28:27.920Z,99442.44
2023-03-26T03:30:57.680Z,99452.75
2023-03-26T03:33:24.590Z,99439.56
2023-03-26T03:35:51.465Z,99440.66
2023-03-26T03:38:19.232Z,99445.16
2023-03-26T03:40:51.202Z,99436.75
2023-03-26T03:43:20.310Z,99445.25
2023-03-26T03:45:47.460Z,99462.06
2023-03-26T03:48:14.123Z,99459.06
2023-03-26T03:50:40.706Z,99465.06
2023-03-26T03:53:07.281Z,99463.22
2023-03-26T03:55:33.829Z,99467.56
2023-03-26T03:58:00.682Z,99469.13
2023-03-26T04:00:27.593Z,99470.38
2023-03-26T04:02:54.683Z,99471.75
2023-03-26T04:05:23.589Z,99478.06
2023-03-26T04:07:50.304Z,99484.75
2023-03-26T04:10:19.861Z,99480.75
2023-03-26T04:12:46.551Z,99477.47
2023-03-26T04:15:15.591Z,99466.19
2023-03-26T04:17:45.426Z,99468.91
2023-03-26T04:20:15.888Z,99472.44
2023-03-26T04:22:45.884Z,99467.50
2023-03-26T04:25:15.553Z,99462.38
2023-03-26T04:27:43.402Z,99459.69
2023-03-26T04:30:17.244Z,99459.16
2023-03-26T04:32:46.747Z,99459.44
2023-03-26T04:35:17.033Z,99455.88
2023-03-26T04:37:46.005Z,99460.63
2023-03-26T04:40:19.592Z,99457.47
2023-03-26T04:42:48.809Z,99469.41
2023-03-26T04:45:23.192Z,99469.16
2023-03-26T04:47:50.681Z,99464.13
2023-03-26T04:50:17.678Z,99470.06
2023-03-26T04:52:45.503Z,99458.47
2023-03-26T04:55:48.991Z,99466.47
2023-03-26T04:58:19.524Z,99471.44
2023-03-26T05:00:49.857Z,99476.25
2023-03-26T05:03:16.667Z,99471.50
2023-03-26T05:05:46.247Z,99469.28
2023-03-26T05:08:15.670Z,99456.50
2023-03-26T05:10:44.563Z,99452.34
2023-03-26T05:13:11.565Z,99461.25
2023-03-26T05:15:38.187Z,99453.09
2023-03-26T05:18:04.938Z,99452.47
2023-03-26T05:20:34.602Z,99461.16
2023-03-26T05:23:04.255Z,99452.75
2023-03-26T05:25:31.131Z,99452.06
2023-03-26T05:27:57.830Z,99453.13
2023-03-26T05:30:24.784Z,99454.22
2023-03-26T05:32:58.798Z,99455.97
2023-03-26T05:35:25.807Z,99453.50
2023-03-26T05:37:57.268Z,99452.75
2023-03-26T05:40:23.833Z,99459.91
2023-03-26T05:42:52.851Z,99462.56
2023-03-26T05:45:19.830Z,99468.56
2023-03-26T05:47:47.414Z,99465.28
2023-03-26T05:50:14.192Z,99459.34
2023-03-26T05:52:41.132Z,99460.84
2023-03-26T05:55:11.758Z,99469.56
2023-03-26T05:57:39.309Z,99458.41
2023-03-26T06:00:11.158Z,99455.03
2023-03-26T06:02:42.441Z,99456.72
2023-03-26T06:05:09.847Z,99454.19
2023-03-26T06:07:36.556Z,99450.13
2023-03-26T06:10:03.559Z,99458.00
2023-03-26T06:12:30.461Z,99452.00
2023-03-26T06:15:01.586Z,99448.91
2023-03-26T06:17:28.144Z,99444.75
2023-03-26T06:19:54.685Z,99437.06
2023-03-26T06:22:23.725Z,99437.06
2023-03-26T06:24:52.981Z,99434.53
2023-03-26T06:27:21.920Z,99444.25
2023-03-26T06:29:48.486Z,99444.38
2023-03-26T06:32:20.075Z,99447.03
2023-03-26T06:34:46.896Z,99449.66
2023-03-26T06:37:13.589Z,99444.56
2023-03-26T06:39:42.492Z,99451.47
2023-03-26T06:42:11.586Z,99447.41
2023-03-26T06:44:40.506Z,99447.56
2023-03-26T06:47:07.069Z,99443.38
2023-03-26T06:49:36.115Z,99448.75
2023-03-26T06:52:05.215Z,99444.59
2023-03-26T06:54:31.926Z,99435.19
2023-03-26T06:56:59.873Z,99448.97
2023-03-26T06:59:26.517Z,99441.28
2023-03-26T07:01:55.392Z,99432.78
2023-03-26T07:04:22.062Z,99437.06
2023-03-26T07:06:48.757Z,99435.41
2023-03-26T07:09:17.740Z,99445.78
2023-03-26T07:11:49.055Z,99441.53
2023-03-26T07:14:15.621Z,99438.94
2023-03-26T07:16:45.375Z,99440.66
2023-03-26T07:19:11.949Z,99447.53
2023-03-26T07:21:38.886Z,99450.97
2023-03-26T07:24:05.888Z,99450.97
2023-03-26T07:27:01.653Z,99456.13
2023-03-26T07:29:57.695Z,99458.66
2023-03-26T07:32:40.414Z,99457.72
2023-03-26T07:35:41.003Z,99456.88
2023-03-26T07:38:12.914Z,99460.34
2023-03-26T07:40:53.462Z,99460.38
2023-03-26T07:43:25.519Z,99461.28
2023-03-26T07:45:57.711Z,99461.28
2023-03-26T07:48:29.788Z,99470.75
2023-03-26T07:51:00.205Z,99465.59
2023-03-26T07:53:30.177Z,99464.72
2023-03-26T07:56:06.021Z,99460.41
2023-03-26T07:59:19.402Z,99462.16
2023-03-26T08:01:58.420Z,99465.56
2023-03-26T08:04:56.097Z,99466.44
2023-03-26T08:07:45.121Z,99463.00
2023-03-26T08:10:27.495Z,99459.59
2023-03-26T08:13:31.099Z,99450.13
2023-03-26T08:16:54.443Z,99464.72
2023-03-26T08:19:44.830Z,99449.25
2023-03-26T08:22:20.840Z,99453.53
2023-03-26T08:25:01.315Z,99453.53
2023-03-26T08:27:43.349Z,99458.69
2023-03-26T08:30:18.945Z,99455.25
2023-03-26T08:32:54.486Z,99451.81
2023-03-26T08:35:21.370Z,99451.81
2023-03-26T08:37:51.839Z,99444.09
2023-03-26T08:40:34.058Z,99441.50
2023-03-26T08:43:09.216Z,99447.53
2023-03-26T08:46:17.821Z,99435.47
2023-03-26T08:49:00.434Z,99435.47
2023-03-26T08:51:32.967Z,99431.97
2023-03-26T08:54:28.059Z,99433.66
2023-03-26T08:57:03.703Z,99429.34
2023-03-26T08:59:32.783Z,99422.41
2023-03-26T09:02:02.274Z,99419.75
2023-03-26T09:04:52.232Z,99415.38
2023-03-26T09:07:38.761Z,99416.09
2023-03-26T09:10:27.088Z,99417.50
2023-03-26T09:13:22.555Z,99413.13
2023-03-26T09:16:01.212Z,99414.81
2023-03-26T09:18:29.997Z,99413.25
2023-03-26T09:21:28.792Z,99400.28
2023-03-26T09:24:19.117Z,99410.63
2023-03-26T09:26:55.061Z,99397.53
2023-03-26T09:29:27.620Z,99394.84
2023-03-26T09:32:14.961Z,99393.91
2023-03-26T09:35:13.875Z,99393.38
2023-03-26T09:38:11.293Z,99393.38
2023-03-26T09:40:44.751Z,99389.69
2023-03-26T09:43:54.389Z,99386.25
2023-03-26T09:46:55.677Z,99366.94
2023-03-26T09:49:55.780Z,99373.66
2023-03-26T09:52:45.615Z,99368.25
2023-03-26T09:55:44.750Z,99360.72
2023-03-26T09:58:20.435Z,99359.94
2023-03-26T10:00:52.510Z,99347.09
2023-03-26T10:03:26.905Z,99350.09
2023-03-26T10:06:21.445Z,99336.22
2023-03-26T10:08:56.493Z,99326.03
2023-03-26T10:11:29.118Z,99336.38
2023-03-26T10:14:01.309Z,99334.69
2023-03-26T10:16:37.022Z,99330.19
2023-03-26T10:19:15.524Z,99336.22
2023-03-26T10:22:14.786Z,99340.66
2023-03-26T10:25:10.558Z,99365.78
2023-03-26T10:27:48.751Z,99395.81
2023-03-26T10:30:35.100Z,99414.81
2023-03-26T10:33:10.737Z,99392.44
2023-03-26T10:36:14.801Z,99373.53
2023-03-26T10:38:44.333Z,99364.94
2023-03-26T10:41:20.648Z,99358.13
2023-03-26T10:44:05.582Z,99344.47
2023-03-26T10:46:53.526Z,99328.09
2023-03-26T10:50:01.717Z,99317.75
2023-03-26T10:52:38.792Z,99309.91
2023-03-26T10:55:24.302Z,99304.69
2023-03-26T10:58:12.823Z,99302.03
2023-03-26T11:00:58.476Z,99299.44
2023-03-26T11:03:36.900Z,99294.16
2023-03-26T11:06:28.122Z,99285.63
2023-03-26T11:08:54.653Z,99283.94
2023-03-26T11:11:27.107Z,99280.41
2023-03-26T11:14:03.828Z,99270.09
2023-03-26T11:17:07.226Z,99266.66
2023-03-26T11:19:37.032Z,99264.94
2023-03-26T11:22:12.390Z,99247.75
2023-03-26T11:24:58.587Z,99250.25
2023-03-26T11:27:40.671Z,99243.16
2023-03-26T11:30:25.216Z,99231.03
2023-03-26T11:33:14.370Z,99230.13
2023-03-26T11:35:45.796Z,99226.81
2023-03-26T11:38:20.990Z,99221.53
2023-03-26T11:40:51.305Z,99214.59
2023-03-26T11:43:24.589Z,99203.28
2023-03-26T11:45:53.747Z,99206.31
2023-03-26T11:48:30.554Z,99206.91
2023-03-26T11:51:05.223Z,99201.13
2023-03-26T11:53:34.646Z,99191.13
2023-03-26T11:56:21.522Z,99180.84
2023-03-26T11:59:14.818Z,99170.13
2023-03-26T12:01:51.884Z,99164.97
2023-03-26T12:04:35.315Z,99164.06
2023-03-26T12:07:17.553Z,99149.56
2023-03-26T12:09:53.351Z,99145.97
2023-03-26T12:12:25.991Z,99142.41
2023-03-26T12:14:55.091Z,99131.09
2023-03-26T12:17:31.423Z,99125.97
2023-03-26T12:19:59.161Z,99125.19
2023-03-26T12:22:43.435Z,99114.25
2023-03-26T12:25:17.976Z,99109.72
2023-03-26T12:27:49.371Z,99099.72
2023-03-26T12:30:23.833Z,99097.59
2023-03-26T12:32:57.791Z,99085.84
2023-03-26T12:35:30.222Z,99082.16
2023-03-26T12:38:27.289Z,99079.53
2023-03-26T12:44:42.719Z,99072.13
2023-03-26T12:44:48.226Z,99055.47
2023-03-26T12:48:00.298Z,99062.50
2023-03-26T12:50:15.699Z,99052.13
2023-03-26T12:52:53.585Z,99058.38
2023-03-26T12:55:26.997Z,99052.28
2023-03-26T12:57:53.540Z,99047.88
2023-03-26T13:00:41.942Z,99050.44
2023-03-26T13:03:31.208Z,99051.38
2023-03-26T13:06:03.577Z,99045.72
2023-03-26T13:08:46.598Z,99034.31
2023-03-26T13:11:17.166Z,99029.28
2023-03-26T13:14:02.350Z,99020.44
2023-03-26T13:16:50.596Z,99018.56
2023-03-26T13:19:48.165Z,99014.81
2023-03-26T13:22:17.734Z,99005.63
2023-03-26T13:25:00.481Z,99000.47
2023-03-26T13:27:48.514Z,99000.47
2023-03-26T13:30:26.307Z,98988.41
2023-03-26T13:33:14.544Z,98973.16
2023-03-26T13:35:58.363Z,98980.16
2023-03-26T13:38:38.047Z,98978.69
2023-03-26T13:41:18.362Z,98974.97
2023-03-26T13:43:59.274Z,98971.97
2023-03-26T13:46:42.864Z,98962.88
2023-03-26T13:49:15.665Z,98966.63
2023-03-26T13:51:42.239Z,98967.34
2023-03-26T13:54:32.380Z,98955.28
2023-03-26T13:57:31.897Z,98951.81
2023-03-26T14:00:06.154Z,98954.13
2023-03-26T14:02:40.586Z,98937.75
2023-03-26T14:05:15.349Z,98937.16
2023-03-26T14:07:49.664Z,98930.69
2023-03-26T14:10:34.271Z,98923.84
2023-03-26T14:13:05.162Z,98924.88
2023-03-26T14:15:40.567Z,98925.47
2023-03-26T14:18:40.291Z,98919.19
2023-03-26T14:21:46.531Z,98922.81
2023-03-26T14:24:50.434Z,98917.56
2023-03-26T14:27:18.583Z,98898.63
2023-03-26T14:30:01.393Z,98908.91
2023-03-26T14:32:30.855Z,98914.50
2023-03-26T14:35:52.921Z,98913.75
2023-03-26T14:38:33.739Z,98903.00
2023-03-26T14:41:14.823Z,98897.75
2023-03-26T14:44:02.883Z,98902.91
2023-03-26T14:47:10.918Z,98897.53
2023-03-26T14:50:04.273Z,98892.88
2023-03-26T14:53:01.263Z,98886.47
2023-03-26T14:55:40.764Z,98883.06
2023-03-26T14:58:22.103Z,98888.06
2023-03-26T15:01:04.251Z,98875.91
2023-03-26T15:03:40.251Z,98861.97
2023-03-26T15:06:22.904Z,98854.28
2023-03-26T15:08:58.703Z,98856.41
2023-03-26T15:11:42.619Z,98860.28
2023-03-26T15:14:30.541Z,98847.22
2023-03-26T15:17:20.595Z,98845.97
2023-03-26T15:20:05.708Z,98848.13
2023-03-26T15:22:54.008Z,98836.19
2023-03-26T15:25:57.548Z,98834.25
2023-03-26T15:29:03.465Z,98824.56
2023-03-26T15:31:42.662Z,98822.78
2023-03-26T15:34:31.066Z,98809.81
2023-03-26T15:37:06.363Z,98803.78
2023-03-26T15:40:13.091Z,98814.84
2023-03-26T15:42:51.530Z,98815.25
2023-03-26T15:45:31.161Z,98817.28
2023-03-26T15:48:27.327Z,98814.66
2023-03-26T15:50:54.743Z,98812.13
2023-03-26T15:53:49.025Z,98808.19
2023-03-26T15:56:22.081Z,98803.19
2023-03-26T15:59:05.898Z,98800.75
2023-03-26T16:01:47.348Z,98791.78
2023-03-26T16:04:38.651Z,98791.69
2023-03-26T16:07:29.078Z,98781.31
2023-03-26T16:10:23.379Z,98779.78
2023-03-26T16:13:14.634Z,98768.97
2023-03-26T16:15:51.683Z,98763.16
2023-03-26T16:18:29.827Z,98764.63
2023-03-26T16:21:04.304Z,98759.75
2023-03-26T16:23:34.660Z,98754.03
2023-03-26T16:26:22.406Z,98746.78
2023-03-26T16:29:11.910Z,98745.00
2023-03-26T16:32:07.974Z,98738.94
2023-03-26T16:34:40.851Z,98731.16
2023-03-26T16:37:43.928Z,98733.72
2023-03-26T16:40:25.429Z,98741.03
2023-03-26T16:43:33.984Z,98744.19
2023-03-26T16:46:25.448Z,98746.91
2023-03-26T16:48:54.631Z,98748.88
2023-03-26T16:51:39.460Z,98747.44
2023-03-26T16:54:22.238Z,98752.06
2023-03-26T16:56:53.684Z,98754.84
2023-03-26T16:59:26.747Z,98748.97
2023-03-26T17:02:36.794Z,98752.34
2023-03-26T17:05:21.460Z,98751.31
2023-03-26T17:08:06.336Z,98750.47
2023-03-26T17:10:36.627Z,98750.56
2023-03-26T17:13:25.945Z,98746.00
2023-03-26T17:15:58.106Z,98744.50
2023-03-26T17:18:50.134Z,98749.28
2023-03-26T17:21:47.228Z,98749.56
2023-03-26T17:24:49.805Z,98755.59
2023-03-26T17:27:44.956Z,98748.81
2023-03-26T17:30:39.861Z,98748.25
2023-03-26T17:33:06.400Z,98750.00
2023-03-26T17:35:45.066Z,98744.72
2023-03-26T17:38:19.781Z,98748.16
2023-03-26T17:40:47.016Z,98741.44
2023-03-26T17:43:40.378Z,98745.59
2023-03-26T17:46:24.942Z,98740.31
2023-03-26T17:49:04.639Z,98747.22
2023-03-26T17:52:05.600Z,98745.63
2023-03-26T17:54:47.990Z,98741.28
2023-03-26T17:57:22.619Z,98753.94
2023-03-26T17:59:57.634Z,98744.84
2023-03-26T18:02:37.092Z,98737.81
2023-03-26T18:05:10.013Z,98742.91
2023-03-26T18:08:04.206Z,98751.50
2023-03-26T18:10:38.710Z,98748.88
2023-03-26T18:13:42.780Z,98740.94
2023-03-26T18:16:50.167Z,98732.50
2023-03-26T18:19:19.831Z,98743.56
2023-03-26T18:21:51.384Z,98735.72
2023-03-26T18:24:39.022Z,98738.75
2023-03-26T18:27:12.166Z,98737.84
2023-03-26T18:29:45.956Z,98730.78
2023-03-26T18:32:12.497Z,98738.44
2023-03-26T18:34:50.087Z,98729.13
2023-03-26T18:37:23.409Z,98727.41
2023-03-26T18:40:20.191Z,98720.81
2023-03-26T18:43:01.545Z,98722.34
2023-03-26T18:45:33.636Z,98713.72
2023-03-26T18:48:04.902Z,98715.66
2023-03-26T18:50:41.615Z,98707.22
2023-03-26T18:53:22.434Z,98705.50
2023-03-26T18:55:53.070Z,98698.47
2023-03-26T18:58:38.959Z,98691.69
2023-03-26T19:01:23.851Z,98690.00
2023-03-26T19:03:53.682Z,98682.22
2023-03-26T19:06:20.994Z,98675.25
2023-03-26T19:08:53.569Z,98672.63
2023-03-26T19:11:20.642Z,98683.13
2023-03-26T19:13:59.299Z,98671.25
2023-03-26T19:16:35.524Z,98671.34
2023-03-26T19:19:09.429Z,98662.81
2023-03-26T19:21:36.789Z,98657.63
2023-03-26T19:24:05.260Z,98673.91
2023-03-26T19:26:34.356Z,98661.19
2023-03-26T19:29:03.942Z,98659.59
2023-03-26T19:31:36.536Z,98659.63
2023-03-26T19:34:13.546Z,98657.13
2023-03-26T19:37:01.945Z,98649.41
2023-03-26T19:39:40.238Z,98640.06
2023-03-26T19:42:12.373Z,98633.91
2023-03-26T19:44:42.805Z,98626.19
2023-03-26T19:47:31.857Z,98627.06
2023-03-26T19:50:28.632Z,98611.69
2023-03-26T19:53:16.819Z,98615.31
2023-03-26T19:56:06.302Z,98603.13
2023-03-26T19:58:36.266Z,98605.06
2023-03-26T20:01:03.854Z,98596.31
2023-03-26T20:03:39.185Z,98594.47
2023-03-26T20:06:11.779Z,98592.66
2023-03-26T20:08:43.801Z,98581.50
2023-03-26T20:11:16.588Z,98576.38
2023-03-26T20:13:43.398Z,98563.50
2023-03-26T20:16:25.659Z,98566.84
2023-03-26T20:18:57.208Z,98556.66
2023-03-26T20:21:27.292Z,98558.50
2023-03-26T20:23:54.755Z,98550.66
2023-03-26T20:26:23.232Z,98541.56
2023-03-26T20:28:53.490Z,98530.13
2023-03-26T20:31:28.167Z,98533.03
2023-03-26T20:33:54.775Z,98530.34
2023-03-26T20:36:33.687Z,98518.16
2023-03-26T20:39:10.258Z,98519.66
2023-03-26T20:41:48.328Z,98512.88
2023-03-26T20:44:19.712Z,98522.16
2023-03-26T20:46:48.545Z,98512.81
2023-03-26T20:49:22.123Z,98511.31
2023-03-26T20:51:48.962Z,98510.31
2023-03-26T20:54:25.173Z,98509.41
2023-03-26T20:56:55.432Z,98513.38
2023-03-26T20:59:28.842Z,98505.53
2023-03-26T21:02:00.230Z,98493.59
2023-03-26T21:04:27.419Z,98493.72
2023-03-26T21:07:07.079Z,98490.16
2023-03-26T21:09:44.888Z,98488.44
2023-03-26T21:12:23.641Z,98485.88
2023-03-26T21:14:52.819Z,98488.38
2023-03-26T21:17:25.071Z,98491.84
2023-03-26T21:20:00.410Z,98494.22
2023-03-26T21:22:49.784Z,98501.28
2023-03-26T21:25:24.344Z,98516.81
2023-03-26T21:28:28.872Z,98509.53
2023-03-26T21:31:09.509Z,98516.31
2023-03-26T21:33:38.571Z,98522.13
2023-03-26T21:36:05.318Z,98538.00
2023-03-26T21:38:34.471Z,98544.94
2023-03-26T21:41:01.428Z,98538.59
2023-03-26T21:43:30.592Z,98546.34
2023-03-26T21:46:00.059Z,98540.88
2023-03-26T21:48:29.040Z,98549.88
2023-03-26T21:51:02.382Z,98542.41
2023-03-26T21:53:31.900Z,98539.56
2023-03-26T21:55:58.545Z,98535.94
2023-03-26T21:58:40.098Z,98534.13
2023-03-26T22:01:17.425Z,98532.78
2023-03-26T22:03:56.057Z,98532.59
2023-03-26T22:06:31.741Z,98529.09
2023-03-26T22:08:59.557Z,98536.19
2023-03-26T22:11:26.138Z,98529.41
2023-03-26T22:13:57.595Z,98527.66
2023-03-26T22:16:29.683Z,98528.53
2023-03-26T22:19:01.022Z,98525.91
2023-03-26T22:21:27.714Z,98522.44
2023-03-26T22:23:59.527Z,98531.00
2023-03-26T22:26:28.800Z,98517.53
2023-03-26T22:28:57.749Z,98526.28
2023-03-26T22:31:27.245Z,98514.63
2023-03-26T22:33:57.233Z,98507.56
2023-03-26T22:36:25.321Z,98506.00
2023-03-26T22:38:56.837Z,98508.63
2023-03-26T22:41:25.901Z,98505.16
2023-03-26T22:44:06.344Z,98490.78
2023-03-26T22:46:40.357Z,98479.63
2023-03-26T22:49:07.425Z,98492.53
2023-03-26T22:51:36.321Z,98485.78
2023-03-26T22:54:03.140Z,98475.59
2023-03-26T22:56:32.057Z,98470.34
2023-03-26T22:59:01.273Z,98459.22
2023-03-26T23:01:27.812Z,98460.81
2023-03-26T23:03:59.741Z,98461.72
2023-03-26T23:06:29.329Z,98465.22
2023-03-26T23:08:58.934Z,98466.84
2023-03-26T23:11:25.553Z,98458.38
2023-03-26T23:13:52.446Z,98451.50
2023-03-26T23:16:21.923Z,98453.25
2023-03-26T23:18:48.904Z,98446.38
2023-03-26T23:21:20.317Z,98446.34
2023-03-26T23:23:51.660Z,98444.88
2023-03-26T23:26:24.129Z,98436.47
2023-03-26T23:28:54.029Z,98439.75
2023-03-26T23:31:25.335Z,98438.09
2023-03-26T23:33:51.930Z,98435.47
2023-03-26T23:36:20.127Z,98434.53
2023-03-26T23:38:48.313Z,98429.50
2023-03-26T23:41:17.104Z,98423.44
2023-03-26T23:43:53.521Z,98418.25
2023-03-26T23:46:30.213Z,98404.63
2023-03-26T23:48:59.964Z,98396.91
2023-03-26T23:51:30.346Z,98398.56
2023-03-26T23:53:59.774Z,98393.34
2023-03-26T23:56:29.802Z,98388.28
2023-03-26T23:59:01.002Z,98381.38
